SBRJ/SDU METAR and TAF weather

Enter ICAO airport designator
Station Type Date Time Source
SBRJ METAR 2024/06/15 22:00 UTC NOAA

SBRJ 152200Z 21005KT CAVOK 26/16 Q1017


Station Type Date Time Source
SBRJ Decoded METAR 2024/06/15 22:00 UTC NOAA

Rio De Janeiro Aeroporto , Brazil (SBRJ) 22-54S 043-10W
Jun 15, 2024 - 06:00 PM EDT / 2024.06.15 2200 UTC
Wind: from the SSW (210 degrees) at 6 MPH (5 KT):0
Visibility: greater than 7 mile(s):0
Temperature: 78 F (26 C)
Dew Point: 60 F (16 C)
Relative Humidity: 54%
Pressure (altimeter): 30.03 in. Hg (1017 hPa)
ob: SBRJ 152200Z 21005KT CAVOK 26/16 Q1017
cycle: 22

Station Type Date Time Source
SBRJ TAF 2024/06/15 18:06 UTC NOAA